createdAt,value
2018-08-20T00:02:28.468Z,9.47
2018-08-20T00:04:59.142Z,10.03
2018-08-20T00:07:26.575Z,10.23
2018-08-20T00:09:54.721Z,10.10
2018-08-20T00:12:22.109Z,10.90
2018-08-20T00:14:49.532Z,10.50
2018-08-20T00:17:17.111Z,11.30
2018-08-20T00:19:44.933Z,11.17
2018-08-20T00:22:12.395Z,11.77
2018-08-20T00:24:40.179Z,11.57
2018-08-20T00:27:07.787Z,12.47
2018-08-20T00:29:37.673Z,11.90
2018-08-20T00:32:06.239Z,11.43
2018-08-20T00:34:33.704Z,10.30
2018-08-20T00:37:01.074Z,12.70
2018-08-20T00:39:28.422Z,12.67
2018-08-20T00:41:57.219Z,11.27
2018-08-20T00:44:24.599Z,12.30
2018-08-20T00:46:52.049Z,11.53
2018-08-20T00:49:19.414Z,11.80
2018-08-20T00:51:46.732Z,10.93
2018-08-20T00:54:14.245Z,12.27
2018-08-20T00:56:41.672Z,11.50
2018-08-20T00:59:09.203Z,11.23
2018-08-20T01:01:36.822Z,10.93
2018-08-20T01:04:04.395Z,11.60
2018-08-20T01:06:31.985Z,11.10
2018-08-20T01:08:59.852Z,10.90
2018-08-20T01:11:27.427Z,10.77
2018-08-20T01:13:54.970Z,10.50
2018-08-20T01:16:22.338Z,9.93
2018-08-20T01:18:49.788Z,10.70
2018-08-20T01:21:18.379Z,9.30
2018-08-20T01:23:45.857Z,10.10
2018-08-20T01:26:13.185Z,10.17
2018-08-20T01:28:40.616Z,10.20
2018-08-20T01:31:08.323Z,11.13
2018-08-20T01:33:36.078Z,9.93
2018-08-20T01:36:03.814Z,10.57
2018-08-20T01:38:31.389Z,10.40
2018-08-20T01:40:59.199Z,10.83
2018-08-20T01:43:27.262Z,10.63
2018-08-20T01:45:54.627Z,9.60
2018-08-20T01:48:22.015Z,10.20
2018-08-20T01:50:49.783Z,10.40
2018-08-20T01:53:17.411Z,9.63
2018-08-20T01:55:44.932Z,9.03
2018-08-20T01:58:12.312Z,10.63
2018-08-20T02:00:39.701Z,10.20
2018-08-20T02:03:07.234Z,10.70
2018-08-20T02:05:34.673Z,10.43
2018-08-20T02:08:02.155Z,10.63
2018-08-20T02:10:29.862Z,10.53
2018-08-20T02:12:57.289Z,10.60
2018-08-20T02:15:25.359Z,10.93
2018-08-20T02:17:52.841Z,9.47
2018-08-20T02:20:20.203Z,9.97
2018-08-20T02:22:47.551Z,9.67
2018-08-20T02:25:14.892Z,10.10
2018-08-20T02:27:42.250Z,10.67
2018-08-20T02:30:10.448Z,9.60
2018-08-20T02:32:38.085Z,10.17
2018-08-20T02:35:05.966Z,10.00
2018-08-20T02:37:40.464Z,9.83
2018-08-20T02:40:07.952Z,10.27
2018-08-20T02:42:35.924Z,9.10
2018-08-20T02:45:04.112Z,9.43
2018-08-20T02:47:31.491Z,10.10
2018-08-20T02:49:58.881Z,9.77
2018-08-20T02:52:26.270Z,9.33
2018-08-20T02:54:53.680Z,9.27
2018-08-20T02:57:21.043Z,9.10
2018-08-20T02:59:48.475Z,8.13
2018-08-20T03:02:15.856Z,8.57
2018-08-20T03:04:43.300Z,8.40
2018-08-20T03:07:10.740Z,8.53
2018-08-20T03:09:38.137Z,7.60
2018-08-20T03:12:05.567Z,7.97
2018-08-20T03:14:33.050Z,8.90
2018-08-20T03:17:01.252Z,7.50
2018-08-20T03:19:28.685Z,7.37
2018-08-20T03:21:56.028Z,7.67
2018-08-20T03:24:23.434Z,7.73
2018-08-20T03:26:50.860Z,6.77
2018-08-20T03:29:18.195Z,7.37
2018-08-20T03:31:45.624Z,6.83
2018-08-20T03:34:13.059Z,6.80
2018-08-20T03:36:40.469Z,6.60
2018-08-20T03:39:07.984Z,7.23
2018-08-20T03:41:35.379Z,6.00
2018-08-20T03:44:02.854Z,6.70
2018-08-20T03:46:30.257Z,6.13
2018-08-20T03:48:57.674Z,7.07
2018-08-20T03:51:25.162Z,5.83
2018-08-20T03:53:52.583Z,6.57
2018-08-20T03:56:19.959Z,5.77
2018-08-20T03:58:47.313Z,5.77
2018-08-20T04:01:14.764Z,6.30
2018-08-20T04:03:42.288Z,6.20
2018-08-20T04:06:09.928Z,5.93
2018-08-20T04:08:37.233Z,5.60
2018-08-20T04:11:04.910Z,5.60
2018-08-20T04:13:32.370Z,6.10
2018-08-20T04:15:59.719Z,5.10
2018-08-20T04:18:27.271Z,4.67
2018-08-20T04:20:54.635Z,4.97
2018-08-20T04:23:28.811Z,4.67
2018-08-20T04:25:56.191Z,4.57
2018-08-20T04:28:23.527Z,4.60
2018-08-20T04:30:50.905Z,4.37
2018-08-20T04:33:18.305Z,4.57
2018-08-20T04:35:45.800Z,4.57
2018-08-20T04:38:13.302Z,4.47
2018-08-20T04:40:40.744Z,4.70
2018-08-20T04:43:08.233Z,4.33
2018-08-20T04:45:35.693Z,4.40
2018-08-20T04:48:03.104Z,4.20
2018-08-20T04:50:30.717Z,3.90
2018-08-20T04:52:57.860Z,4.30
2018-08-20T04:55:25.130Z,4.20
2018-08-20T04:57:52.532Z,4.03
2018-08-20T05:00:19.879Z,4.17
2018-08-20T05:02:48.690Z,4.43
2018-08-20T05:05:16.777Z,4.13
2018-08-20T05:07:44.822Z,4.73
2018-08-20T05:10:12.206Z,4.03
2018-08-20T05:12:39.667Z,5.10
2018-08-20T05:15:07.481Z,4.57
2018-08-20T05:17:34.781Z,4.20
2018-08-20T05:20:02.270Z,4.30
2018-08-20T05:22:29.923Z,4.50
2018-08-20T05:24:57.256Z,4.40
2018-08-20T05:27:25.661Z,4.30
2018-08-20T05:29:52.903Z,4.53
2018-08-20T05:32:20.334Z,4.30
2018-08-20T05:34:48.412Z,4.10
2018-08-20T05:37:15.826Z,4.90
2018-08-20T05:39:43.163Z,4.53
2018-08-20T05:42:10.544Z,4.60
2018-08-20T05:44:37.985Z,4.23
2018-08-20T05:47:05.500Z,4.10
2018-08-20T05:49:32.933Z,4.00
2018-08-20T05:52:01.101Z,3.67
2018-08-20T05:54:29.421Z,4.50
2018-08-20T05:56:56.859Z,4.20
2018-08-20T05:59:24.224Z,4.50
2018-08-20T06:01:51.667Z,3.80
2018-08-20T06:04:19.229Z,3.93
2018-08-20T06:06:46.620Z,3.90
2018-08-20T06:09:13.950Z,3.23
2018-08-20T06:11:41.418Z,3.97
2018-08-20T06:14:08.729Z,3.63
2018-08-20T06:16:36.068Z,4.07
2018-08-20T06:19:03.630Z,3.80
2018-08-20T06:21:31.886Z,3.60
2018-08-20T06:23:59.297Z,3.60
2018-08-20T06:26:26.609Z,2.93
2018-08-20T06:28:53.978Z,3.40
2018-08-20T06:31:21.320Z,3.30
2018-08-20T06:33:49.147Z,3.07
2018-08-20T06:36:16.519Z,2.77
2018-08-20T06:38:43.903Z,2.97
2018-08-20T06:41:11.259Z,2.60
2018-08-20T06:43:38.590Z,2.60
2018-08-20T06:46:05.947Z,2.67
2018-08-20T06:48:33.341Z,2.57
2018-08-20T06:51:00.734Z,2.57
2018-08-20T06:53:28.155Z,2.67
2018-08-20T06:55:55.643Z,2.63
2018-08-20T06:58:23.171Z,2.63
2018-08-20T07:00:50.709Z,2.37
2018-08-20T07:03:18.251Z,2.90
2018-08-20T07:05:45.667Z,2.70
2018-08-20T07:08:13.326Z,2.77
2018-08-20T07:10:45.988Z,2.67
2018-08-20T07:13:25.687Z,2.53
2018-08-20T07:15:53.300Z,2.60
2018-08-20T07:18:20.803Z,2.60
2018-08-20T07:20:48.130Z,2.60
2018-08-20T07:23:15.431Z,2.10
2018-08-20T07:25:43.981Z,2.23
2018-08-20T07:28:11.636Z,2.50
2018-08-20T07:30:38.964Z,2.10
2018-08-20T07:33:06.326Z,1.77
2018-08-20T07:35:33.674Z,2.00
2018-08-20T07:38:01.196Z,1.97
2018-08-20T07:40:28.580Z,2.53
2018-08-20T07:42:56.171Z,1.97
2018-08-20T07:45:23.578Z,2.00
2018-08-20T07:47:50.935Z,2.03
2018-08-20T07:50:18.335Z,2.37
2018-08-20T07:52:45.619Z,2.10
2018-08-20T07:55:13.969Z,2.33
2018-08-20T07:57:41.496Z,2.40
2018-08-20T08:00:09.387Z,2.60
2018-08-20T08:02:37.707Z,2.33
2018-08-20T08:05:06.451Z,2.40
2018-08-20T08:07:34.090Z,2.00
2018-08-20T08:10:01.410Z,2.40
2018-08-20T08:12:29.018Z,2.50
2018-08-20T08:14:57.313Z,2.53
2018-08-20T08:17:25.339Z,2.50
2018-08-20T08:19:52.769Z,2.57
2018-08-20T08:22:20.223Z,2.27
2018-08-20T08:24:47.618Z,2.40
2018-08-20T08:27:14.940Z,2.60
2018-08-20T08:29:42.317Z,2.60
2018-08-20T08:32:09.732Z,3.13
2018-08-20T08:34:37.157Z,2.63
2018-08-20T08:37:05.211Z,2.47
2018-08-20T08:39:32.593Z,2.50
2018-08-20T08:42:00.547Z,2.23
2018-08-20T08:44:27.999Z,2.53
2018-08-20T08:46:55.373Z,2.20
2018-08-20T08:49:22.835Z,2.27
2018-08-20T08:51:50.188Z,2.30
2018-08-20T08:54:17.649Z,2.60
2018-08-20T08:56:45.020Z,2.97
2018-08-20T08:59:12.718Z,2.47
2018-08-20T09:01:40.078Z,2.60
2018-08-20T09:04:07.475Z,2.40
2018-08-20T09:06:34.835Z,2.40
2018-08-20T09:09:02.303Z,2.77
2018-08-20T09:11:29.882Z,2.37
2018-08-20T09:13:57.347Z,2.77
2018-08-20T09:16:24.776Z,2.50
2018-08-20T09:18:52.287Z,2.77
2018-08-20T09:21:19.712Z,2.73
2018-08-20T09:23:47.103Z,2.07
2018-08-20T09:26:14.571Z,2.43
2018-08-20T09:28:41.945Z,2.47
2018-08-20T09:31:09.350Z,2.20
2018-08-20T09:33:36.670Z,2.63
2018-08-20T09:36:04.073Z,2.43
2018-08-20T09:38:32.002Z,2.10
2018-08-20T09:40:59.379Z,1.83
2018-08-20T09:43:26.722Z,2.03
2018-08-20T09:45:54.207Z,1.90
2018-08-20T09:48:21.625Z,1.50
2018-08-20T09:50:49.065Z,1.97
2018-08-20T09:53:16.422Z,1.90
2018-08-20T09:55:43.813Z,1.70
2018-08-20T09:58:11.365Z,1.63
2018-08-20T10:00:39.227Z,1.30
2018-08-20T10:03:07.142Z,1.40
2018-08-20T10:05:34.550Z,1.40
2018-08-20T10:08:01.862Z,1.10
2018-08-20T10:10:29.446Z,1.20
2018-08-20T10:12:56.825Z,0.90
2018-08-20T10:15:24.158Z,0.90
2018-08-20T10:17:51.675Z,0.80
2018-08-20T10:20:19.298Z,1.10
2018-08-20T10:22:46.621Z,1.10
2018-08-20T10:25:14.845Z,1.03
2018-08-20T10:27:42.337Z,1.00
2018-08-20T10:30:10.631Z,1.00
2018-08-20T10:32:37.985Z,1.10
2018-08-20T10:35:05.920Z,1.20
2018-08-20T10:37:34.082Z,1.00
2018-08-20T10:40:01.577Z,1.00
2018-08-20T10:42:28.963Z,0.93
2018-08-20T10:45:01.957Z,0.90
2018-08-20T10:47:29.233Z,1.23
2018-08-20T10:49:56.584Z,1.10
2018-08-20T10:52:24.007Z,1.03
2018-08-20T10:54:51.360Z,1.17
2018-08-20T10:57:18.751Z,0.90
2018-08-20T10:59:46.019Z,0.90
2018-08-20T11:02:13.401Z,1.20
2018-08-20T11:04:40.691Z,1.00
2018-08-20T11:07:08.107Z,1.00
2018-08-20T11:09:35.565Z,1.30
2018-08-20T11:12:03.733Z,0.80
2018-08-20T11:14:31.156Z,1.53
2018-08-20T11:16:58.581Z,1.20
2018-08-20T11:19:26.097Z,1.00
2018-08-20T11:21:53.565Z,1.07
2018-08-20T11:24:20.878Z,0.97
2018-08-20T11:26:48.878Z,1.00
2018-08-20T11:29:16.537Z,1.00
2018-08-20T11:31:43.858Z,1.07
2018-08-20T11:34:11.132Z,1.10
2018-08-20T11:36:38.577Z,1.00
2018-08-20T11:39:06.358Z,0.97
2018-08-20T11:41:33.746Z,1.10
2018-08-20T11:44:01.091Z,1.30
2018-08-20T11:46:28.458Z,1.50
2018-08-20T11:48:55.734Z,1.20
2018-08-20T11:51:23.493Z,1.07
2018-08-20T11:53:50.918Z,1.47
2018-08-20T11:56:18.344Z,1.47
2018-08-20T11:58:45.683Z,1.30
2018-08-20T12:01:13.085Z,1.60
2018-08-20T12:03:41.298Z,1.30
2018-08-20T12:06:08.900Z,1.07
2018-08-20T12:08:36.378Z,1.33
2018-08-20T12:11:03.730Z,1.40
2018-08-20T12:13:31.121Z,1.23
2018-08-20T12:15:58.502Z,1.37
2018-08-20T12:18:25.882Z,1.37
2018-08-20T12:20:53.157Z,1.37
2018-08-20T12:23:20.618Z,1.30
2018-08-20T12:25:48.538Z,1.70
2018-08-20T12:28:16.002Z,1.80
2018-08-20T12:30:43.197Z,1.70
2018-08-20T12:33:10.579Z,1.70
2018-08-20T12:35:37.919Z,1.50
2018-08-20T12:38:05.172Z,1.50
2018-08-20T12:40:32.594Z,1.60
2018-08-20T12:42:59.794Z,1.40
2018-08-20T12:45:27.770Z,1.60
2018-08-20T12:47:55.132Z,1.70
2018-08-20T12:50:22.626Z,1.50
2018-08-20T12:52:50.047Z,1.50
2018-08-20T12:55:17.327Z,1.70
2018-08-20T12:57:44.583Z,1.57
2018-08-20T13:00:11.880Z,1.50
2018-08-20T13:02:39.128Z,1.43
2018-08-20T13:05:06.555Z,1.43
2018-08-20T13:07:33.767Z,1.53
2018-08-20T13:10:01.129Z,1.40
2018-08-20T13:12:28.442Z,1.70
2018-08-20T13:14:55.734Z,1.50
2018-08-20T13:17:23.071Z,1.50
2018-08-20T13:19:50.621Z,1.43
2018-08-20T13:22:18.668Z,1.67
2018-08-20T13:24:45.996Z,1.30
2018-08-20T13:27:13.306Z,1.20
2018-08-20T13:29:40.686Z,1.20
2018-08-20T13:32:08.717Z,1.20
2018-08-20T13:34:36.173Z,1.30
2018-08-20T13:37:03.449Z,1.53
2018-08-20T13:39:31.379Z,1.37
2018-08-20T13:41:58.670Z,1.13
2018-08-20T13:44:26.012Z,1.50
2018-08-20T13:46:53.466Z,1.50
2018-08-20T13:49:20.797Z,1.40
2018-08-20T13:51:48.214Z,1.40
2018-08-20T13:54:15.533Z,1.20
2018-08-20T13:56:42.884Z,1.53
2018-08-20T13:59:10.280Z,1.30
2018-08-20T14:01:37.584Z,1.20
2018-08-20T14:04:04.908Z,1.50
2018-08-20T14:06:32.189Z,1.50
2018-08-20T14:08:59.607Z,1.42
2018-08-20T14:11:26.870Z,1.50
2018-08-20T14:13:54.216Z,1.20
2018-08-20T14:16:21.592Z,1.45
2018-08-20T14:18:48.911Z,1.22
2018-08-20T14:21:16.679Z,1.30
2018-08-20T14:23:45.710Z,1.50
2018-08-20T14:26:13.221Z,1.60
2018-08-20T14:28:40.677Z,1.50
2018-08-20T14:31:08.281Z,1.57
2018-08-20T14:33:35.662Z,1.30
2018-08-20T14:36:03.107Z,1.30
2018-08-20T14:38:30.657Z,1.50
2018-08-20T14:40:57.981Z,1.60
2018-08-20T14:43:25.363Z,1.30
2018-08-20T14:45:58.341Z,1.33
2018-08-20T14:48:25.854Z,1.50
2018-08-20T14:50:53.159Z,1.67
2018-08-20T14:53:20.558Z,1.40
2018-08-20T14:55:47.893Z,1.50
2018-08-20T14:58:15.198Z,1.53
2018-08-20T15:00:42.567Z,4.43
2018-08-20T15:03:09.794Z,1.70
2018-08-20T15:05:37.140Z,1.43
2018-08-20T15:08:04.377Z,1.40
2018-08-20T15:10:31.665Z,1.60
2018-08-20T15:12:58.978Z,1.53
2018-08-20T15:15:26.507Z,1.30
2018-08-20T15:17:53.786Z,1.47
2018-08-20T15:20:21.165Z,1.40
2018-08-20T15:22:49.933Z,1.23
2018-08-20T15:25:17.738Z,1.50
2018-08-20T15:27:45.203Z,1.40
2018-08-20T15:30:12.617Z,1.40
2018-08-20T15:32:40.000Z,1.60
2018-08-20T15:35:07.221Z,1.50
2018-08-20T15:37:35.399Z,1.50
2018-08-20T15:40:02.764Z,1.30
2018-08-20T15:42:30.101Z,1.50
2018-08-20T15:44:57.461Z,1.50
2018-08-20T15:47:24.790Z,1.67
2018-08-20T15:49:52.171Z,1.60
2018-08-20T15:52:19.721Z,1.63
2018-08-20T15:54:47.012Z,1.50
2018-08-20T15:57:14.281Z,1.50
2018-08-20T15:59:41.658Z,1.47
2018-08-20T16:02:09.177Z,1.40
2018-08-20T16:04:36.467Z,1.40
2018-08-20T16:07:03.789Z,1.50
2018-08-20T16:09:31.151Z,1.60
2018-08-20T16:11:58.452Z,1.20
2018-08-20T16:14:25.741Z,1.23
2018-08-20T16:16:53.046Z,1.33
2018-08-20T16:19:20.399Z,1.60
2018-08-20T16:21:48.023Z,1.77
2018-08-20T16:24:15.352Z,1.60
2018-08-20T16:26:42.779Z,1.77
2018-08-20T16:29:10.039Z,1.70
2018-08-20T16:31:38.263Z,1.60
2018-08-20T16:34:05.609Z,1.37
2018-08-20T16:36:33.801Z,1.60
2018-08-20T16:39:01.452Z,1.30
2018-08-20T16:41:28.825Z,1.40
2018-08-20T16:43:56.457Z,1.17
2018-08-20T16:46:24.346Z,1.50
2018-08-20T16:48:51.869Z,1.30
2018-08-20T16:51:19.326Z,1.40
2018-08-20T16:53:46.653Z,1.30
2018-08-20T16:56:14.293Z,1.23
2018-08-20T16:58:41.836Z,1.40
2018-08-20T17:01:16.800Z,1.30
2018-08-20T17:03:44.225Z,1.50
2018-08-20T17:06:11.584Z,1.20
2018-08-20T17:08:41.590Z,1.80
2018-08-20T17:11:09.670Z,1.50
2018-08-20T17:13:38.146Z,1.40
2018-08-20T17:16:08.174Z,1.30
2018-08-20T17:18:35.577Z,1.43
2018-08-20T17:21:03.121Z,1.60
2018-08-20T17:23:35.069Z,1.60
2018-08-20T17:26:02.520Z,1.50
2018-08-20T17:28:29.963Z,1.50
2018-08-20T17:30:59.378Z,1.27
2018-08-20T17:33:30.617Z,1.67
2018-08-20T17:35:58.024Z,1.60
2018-08-20T17:38:25.573Z,1.50
2018-08-20T17:40:53.154Z,1.50
2018-08-20T17:43:20.705Z,1.57
2018-08-20T17:45:48.016Z,1.60
2018-08-20T17:48:21.640Z,1.60
2018-08-20T17:50:49.110Z,1.47
2018-08-20T17:53:16.586Z,1.60
2018-08-20T17:55:44.041Z,1.63
2018-08-20T17:58:11.563Z,1.53
2018-08-20T18:00:44.910Z,1.40
2018-08-20T18:03:29.751Z,1.90
2018-08-20T18:05:58.503Z,2.00
2018-08-20T18:08:27.020Z,1.90
2018-08-20T18:10:54.660Z,2.00
2018-08-20T18:13:37.522Z,1.87
2018-08-20T18:16:07.998Z,1.63
2018-08-20T18:18:36.321Z,2.20
2018-08-20T18:21:03.851Z,1.93
2018-08-20T18:23:32.503Z,1.93
2018-08-20T18:25:59.950Z,1.63
2018-08-20T18:28:27.957Z,1.73
2018-08-20T18:31:04.866Z,1.70
2018-08-20T18:33:33.006Z,1.80
2018-08-20T18:36:05.097Z,1.73
2018-08-20T18:38:36.759Z,1.60
2018-08-20T18:41:04.313Z,1.70
2018-08-20T18:43:31.731Z,1.90
2018-08-20T18:45:59.182Z,1.70
2018-08-20T18:48:34.192Z,2.20
2018-08-20T18:51:01.705Z,2.63
2018-08-20T18:53:31.951Z,2.00
2018-08-20T18:56:03.044Z,2.23
2018-08-20T18:58:31.405Z,2.00
2018-08-20T19:00:59.314Z,1.80
2018-08-20T19:03:30.631Z,2.30
2018-08-20T19:05:57.980Z,2.13
2018-08-20T19:08:25.632Z,2.53
2018-08-20T19:10:53.222Z,2.40
2018-08-20T19:13:20.638Z,2.30
2018-08-20T19:15:49.201Z,2.43
2018-08-20T19:18:24.124Z,2.40
2018-08-20T19:20:51.488Z,3.00
2018-08-20T19:23:18.991Z,2.80
2018-08-20T19:25:46.888Z,2.70
2018-08-20T19:28:20.165Z,2.57
2018-08-20T19:30:47.608Z,2.87
2018-08-20T19:33:31.363Z,2.60
2018-08-20T19:35:59.477Z,2.70
2018-08-20T19:38:26.779Z,2.70
2018-08-20T19:41:04.216Z,2.77
2018-08-20T19:43:37.336Z,2.90
2018-08-20T19:46:04.935Z,3.20
2018-08-20T19:48:32.264Z,2.50
2018-08-20T19:50:59.809Z,2.40
2018-08-20T19:53:27.445Z,2.50
2018-08-20T19:55:54.900Z,2.50
2018-08-20T19:58:32.867Z,2.77
2018-08-20T20:01:09.114Z,2.87
2018-08-20T20:03:38.942Z,2.87
2018-08-20T20:06:06.317Z,2.43
2018-08-20T20:08:33.755Z,2.77
2018-08-20T20:11:01.149Z,2.60
2018-08-20T20:13:28.593Z,2.40
2018-08-20T20:15:56.828Z,2.60
2018-08-20T20:18:24.303Z,2.77
2018-08-20T20:20:51.796Z,2.70
2018-08-20T20:23:19.214Z,2.40
2018-08-20T20:25:47.144Z,2.70
2018-08-20T20:28:15.329Z,2.80
2018-08-20T20:30:42.672Z,3.00
2018-08-20T20:33:10.075Z,2.70
2018-08-20T20:35:37.513Z,2.40
2018-08-20T20:38:04.977Z,3.00
2018-08-20T20:40:32.552Z,2.90
2018-08-20T20:43:00.803Z,2.60
2018-08-20T20:45:28.122Z,2.90
2018-08-20T20:47:55.436Z,3.00
2018-08-20T20:50:22.756Z,2.93
2018-08-20T20:52:50.220Z,3.13
2018-08-20T20:55:17.657Z,2.90
2018-08-20T20:57:45.102Z,2.67
2018-08-20T21:00:12.524Z,3.80
2018-08-20T21:02:39.853Z,3.40
2018-08-20T21:05:09.094Z,2.80
2018-08-20T21:07:36.530Z,3.47
2018-08-20T21:10:04.533Z,3.50
2018-08-20T21:12:32.507Z,3.53
2018-08-20T21:15:00.368Z,3.67
2018-08-20T21:17:27.924Z,3.80
2018-08-20T21:19:55.305Z,4.03
2018-08-20T21:22:22.546Z,3.60
2018-08-20T21:24:49.826Z,3.80
2018-08-20T21:27:22.572Z,3.57
2018-08-20T21:29:49.943Z,3.67
2018-08-20T21:32:17.235Z,4.03
2018-08-20T21:34:44.579Z,3.40
2018-08-20T21:37:12.461Z,3.77
2018-08-20T21:39:39.983Z,3.77
2018-08-20T21:42:07.293Z,4.07
2018-08-20T21:44:34.629Z,3.90
2018-08-20T21:47:13.337Z,4.33
2018-08-20T21:49:40.629Z,4.17
2018-08-20T21:52:08.049Z,4.57
2018-08-20T21:54:37.267Z,4.20
2018-08-20T21:57:04.678Z,4.43
2018-08-20T21:59:32.221Z,4.90
2018-08-20T22:01:59.458Z,5.73
2018-08-20T22:04:28.712Z,5.70
2018-08-20T22:06:57.078Z,5.43
2018-08-20T22:09:24.394Z,5.03
2018-08-20T22:11:54.036Z,5.83
2018-08-20T22:14:21.406Z,5.97
2018-08-20T22:16:48.749Z,5.60
2018-08-20T22:19:16.287Z,5.60
2018-08-20T22:21:43.645Z,5.73
2018-08-20T22:24:11.113Z,5.23
2018-08-20T22:26:44.212Z,5.23
2018-08-20T22:29:11.470Z,5.53
2018-08-20T22:31:43.330Z,5.57
2018-08-20T22:34:11.116Z,7.33
2018-08-20T22:36:38.611Z,6.87
2018-08-20T22:39:07.587Z,6.37
2018-08-20T22:41:34.951Z,6.60
2018-08-20T22:44:02.312Z,6.33
2018-08-20T22:46:29.894Z,7.27
2018-08-20T22:48:59.910Z,6.97
2018-08-20T22:51:28.324Z,7.43
2018-08-20T22:53:58.036Z,7.27
2018-08-20T22:56:31.738Z,6.93
2018-08-20T22:59:01.497Z,6.30
2018-08-20T23:01:28.960Z,6.83
2018-08-20T23:03:56.330Z,7.20
2018-08-20T23:06:23.839Z,6.90
2018-08-20T23:08:51.334Z,6.70
2018-08-20T23:11:35.646Z,6.17
2018-08-20T23:14:03.261Z,6.47
2018-08-20T23:16:30.833Z,6.30
2018-08-20T23:18:58.497Z,5.67
2018-08-20T23:21:29.369Z,5.57
2018-08-20T23:23:57.542Z,5.63
2018-08-20T23:26:25.769Z,5.40
2018-08-20T23:28:53.785Z,5.20
2018-08-20T23:31:21.112Z,5.00
2018-08-20T23:33:48.607Z,5.47
2018-08-20T23:36:16.002Z,4.50
2018-08-20T23:38:43.512Z,4.47
2018-08-20T23:41:10.871Z,4.53
2018-08-20T23:43:40.025Z,4.70
2018-08-20T23:46:12.829Z,5.00
2018-08-20T23:48:40.637Z,5.70
2018-08-20T23:51:07.959Z,5.20
2018-08-20T23:53:35.226Z,5.60
2018-08-20T23:56:02.974Z,4.97
2018-08-20T23:58:30.392Z,5.50
